Shreveport, LA

2:16 PM CDT on July 06, 2015 (GMT -0500)
Central Bossier | | Change Station
CLOSE
Current Station
Personal Weather Station
Location: Bossier City, LA
Elevation: 177 ft
Nearby Weather Stations

Elev 177 ft 32.52 °N, 93.71 °W | Updated 6 minutes ago

Scattered Clouds
Scattered Clouds
95.5 °F
Feels Like 110 °F
N
6.7
Wind Variable Wind from SSW

Today
High -- | Low -- °F
--% Chance of Precip.
Yesterday
High -- | Low -- °F
Precip. -- in
6:13 AM 8:25 PM
Waning Gibbous, 73% visible
Pressure 30.05 in
Visibility 10.0 miles
Clouds Scattered Clouds 4500 ft
Scattered Clouds 5500 ft
Heat Index 110 °F
Dew Point 77 °F
Humidity 55%
Rainfall 0.00 in
Snow Depth Not available.
UV 10 out of 12
Pollen 3.20 out of 12
Air Quality Not available.
Flu Activity Not available.
METAR KDTN 061853Z 21012G19KT 10SM SCT045 SCT055 33/22 A3006 RMK AO2 SLP176 T03280217

More Conditions Fewer Conditions

Pressure 30.05 in
Visibility 10.0 miles
Clouds Scattered Clouds 4500 ft
Scattered Clouds 5500 ft
Heat Index 110 °F
Dew Point 77 °F
Humidity 55%
Rainfall 0.00 in
Snow Depth Not available.
UV 10 out of 12
Pollen 3.20 out of 12
Air Quality Not available.
Flu Activity Not available.
METAR KDTN 061853Z 21012G19KT 10SM SCT045 SCT055 33/22 A3006 RMK AO2 SLP176 T03280217

More Conditions Fewer Conditions

10-Day Weather Forecast

×

Almanac

Astronomy

Jul. 06, 2015 Rise Set
Actual Time
Civil Twilight
Nautical Twilight
Astronomical Twilight
Moon
Length of Visible Light
Length of Day
Tomorrow will be .
, % of the Moon is Illuminated

Today's Extremes

State Highs State Lows

Community

WunderPhotos

Upload Photos

1,835,616 photos uploaded!

WunderBlogs® & News

Nearby

Air Quality

  Air Quality AQ Index Pollutant
Not available.

Snow Depth

Station Depth Elevation

Earthquake Activity

City Distance Mag. Time & Date
Minimum magnitude displayed is 2.5.

Coastal Water Temperatures

Place Temperature

Stations

Nearby Weather Stations

Station Location Temp. Windchill Dew Point Humidity Wind Precip. Elev Updated Type